createdAt,value
2019-02-24T00:02:06.211Z,20.35
2019-02-24T00:04:48.449Z,14.83
2019-02-24T00:07:37.941Z,15.98
2019-02-24T00:10:13.272Z,17.52
2019-02-24T00:12:49.297Z,18.25
2019-02-24T00:15:24.832Z,19.30
2019-02-24T00:18:00.949Z,18.10
2019-02-24T00:20:36.681Z,19.10
2019-02-24T00:23:19.161Z,9.25
2019-02-24T00:25:54.903Z,15.85
2019-02-24T00:28:37.134Z,15.63
2019-02-24T00:31:13.022Z,18.42
2019-02-24T00:33:48.273Z,11.33
2019-02-24T00:36:24.053Z,21.77
2019-02-24T00:39:00.115Z,21.52
2019-02-24T00:41:36.359Z,19.55
2019-02-24T00:44:11.726Z,17.70
2019-02-24T00:46:47.476Z,18.30
2019-02-24T00:49:23.275Z,10.45
2019-02-24T00:52:05.455Z,11.75
2019-02-24T00:54:41.493Z,13.53
2019-02-24T00:57:17.234Z,15.75
2019-02-24T00:59:53.245Z,16.00
2019-02-24T01:02:35.497Z,11.33
2019-02-24T01:05:10.648Z,16.40
2019-02-24T01:07:46.019Z,18.57
2019-02-24T01:10:28.748Z,12.78
2019-02-24T01:13:10.242Z,16.43
2019-02-24T01:15:52.883Z,16.17
2019-02-24T01:18:41.125Z,16.43
2019-02-24T01:21:17.005Z,11.12
2019-02-24T01:23:59.306Z,18.20
2019-02-24T01:26:34.644Z,13.10
2019-02-24T01:29:16.637Z,20.50
2019-02-24T01:31:51.849Z,14.73
2019-02-24T01:34:33.634Z,14.78
2019-02-24T01:37:08.797Z,13.20
2019-02-24T01:39:44.726Z,12.58
2019-02-24T01:42:20.320Z,13.45
2019-02-24T01:45:02.766Z,16.55
2019-02-24T01:47:38.751Z,14.95
2019-02-24T01:50:20.513Z,13.18
2019-02-24T01:52:49.695Z,16.10
2019-02-24T01:55:31.697Z,17.05
2019-02-24T01:58:13.708Z,14.60
2019-02-24T02:00:56.401Z,12.73
2019-02-24T02:03:37.885Z,12.67
2019-02-24T02:06:13.694Z,13.70
2019-02-24T02:08:55.810Z,14.55
2019-02-24T02:11:31.459Z,13.43
2019-02-24T02:14:07.451Z,15.53
2019-02-24T02:16:49.942Z,20.32
2019-02-24T02:19:25.697Z,12.05
2019-02-24T02:22:08.294Z,17.70
2019-02-24T02:24:50.643Z,16.90
2019-02-24T02:27:26.384Z,16.45
2019-02-24T02:30:08.775Z,14.25
2019-02-24T02:32:50.365Z,16.32
2019-02-24T02:35:26.265Z,11.78
2019-02-24T02:38:02.280Z,15.28
2019-02-24T02:40:44.260Z,13.50
2019-02-24T02:43:19.763Z,17.02
2019-02-24T02:45:54.999Z,16.10
2019-02-24T02:48:24.168Z,17.32
2019-02-24T02:51:06.383Z,16.95
2019-02-24T02:53:48.959Z,19.27
2019-02-24T02:56:31.708Z,14.70
2019-02-24T02:59:07.890Z,18.90
2019-02-24T03:01:37.053Z,20.40
2019-02-24T03:04:06.236Z,19.10
2019-02-24T03:06:52.842Z,18.17
2019-02-24T03:09:22.011Z,12.47
2019-02-24T03:11:58.263Z,21.30
2019-02-24T03:14:27.521Z,14.10
2019-02-24T03:17:03.428Z,21.23
2019-02-24T03:19:32.604Z,18.77
2019-02-24T03:22:08.197Z,20.00
2019-02-24T03:24:37.369Z,17.40
2019-02-24T03:27:13.137Z,23.10
2019-02-24T03:29:48.758Z,18.60
2019-02-24T03:32:17.918Z,16.60
2019-02-24T03:34:53.203Z,17.32
2019-02-24T03:37:29.421Z,21.17
2019-02-24T03:39:58.600Z,18.45
2019-02-24T03:42:34.784Z,20.08
2019-02-24T03:45:12.204Z,20.77
2019-02-24T03:47:41.378Z,22.07
2019-02-24T03:50:16.751Z,15.98
2019-02-24T03:52:52.200Z,18.87
2019-02-24T03:55:34.998Z,17.75
2019-02-24T03:58:24.638Z,19.60
2019-02-24T04:01:00.113Z,21.02
2019-02-24T04:03:36.266Z,19.30
2019-02-24T04:06:12.586Z,20.25
2019-02-24T04:08:47.928Z,14.10
2019-02-24T04:11:17.105Z,11.10
2019-02-24T04:13:58.842Z,15.63
2019-02-24T04:16:33.998Z,17.37
2019-02-24T04:19:15.878Z,18.80
2019-02-24T04:21:51.356Z,17.37
2019-02-24T04:24:33.220Z,18.15
2019-02-24T04:27:02.452Z,21.35
2019-02-24T04:29:38.532Z,16.97
2019-02-24T04:32:20.223Z,17.70
2019-02-24T04:34:56.388Z,16.62
2019-02-24T04:37:32.404Z,16.07
2019-02-24T04:40:15.742Z,18.10
2019-02-24T04:42:51.646Z,15.00
2019-02-24T04:45:27.450Z,20.55
2019-02-24T04:48:02.816Z,12.45
2019-02-24T04:50:38.409Z,20.12
2019-02-24T04:53:13.798Z,17.02
2019-02-24T04:55:55.642Z,19.48
2019-02-24T04:58:31.707Z,18.80
2019-02-24T05:01:14.476Z,10.75
2019-02-24T05:03:50.251Z,12.97
2019-02-24T05:06:32.081Z,18.25
2019-02-24T05:09:01.201Z,17.05
2019-02-24T05:11:43.127Z,11.63
2019-02-24T05:14:18.948Z,15.28
2019-02-24T05:17:01.121Z,14.87
2019-02-24T05:19:43.658Z,19.02
2019-02-24T05:22:12.836Z,15.48
2019-02-24T05:24:48.640Z,13.40
2019-02-24T05:27:30.256Z,10.50
2019-02-24T05:30:06.299Z,11.65
2019-02-24T05:32:42.384Z,16.45
2019-02-24T05:35:17.587Z,18.42
2019-02-24T05:37:59.248Z,18.32
2019-02-24T05:40:34.399Z,11.65
2019-02-24T05:43:10.139Z,15.55
2019-02-24T05:45:45.838Z,12.45
2019-02-24T05:48:27.828Z,11.83
2019-02-24T05:51:09.918Z,17.65
2019-02-24T05:53:45.397Z,12.37
2019-02-24T05:56:27.749Z,20.43
2019-02-24T05:59:03.058Z,15.50
2019-02-24T06:01:45.055Z,14.33
2019-02-24T06:04:33.485Z,15.05
2019-02-24T06:07:09.798Z,15.45
2019-02-24T06:09:45.238Z,15.18
2019-02-24T06:12:21.227Z,23.25
2019-02-24T06:14:57.087Z,16.05
2019-02-24T06:17:32.585Z,18.37
2019-02-24T06:20:14.014Z,16.87
2019-02-24T06:22:56.188Z,15.90
2019-02-24T06:25:31.456Z,19.50
2019-02-24T06:28:06.774Z,16.62
2019-02-24T06:30:48.719Z,19.70
2019-02-24T06:33:31.237Z,17.50
2019-02-24T06:36:07.181Z,27.30
2019-02-24T06:38:43.504Z,27.17
2019-02-24T06:41:12.672Z,25.60
2019-02-24T06:43:54.798Z,18.98
2019-02-24T06:46:30.570Z,20.72
2019-02-24T06:49:12.965Z,24.23
2019-02-24T06:51:55.241Z,18.65
2019-02-24T06:54:37.621Z,14.93
2019-02-24T06:57:13.134Z,15.83
2019-02-24T06:59:55.560Z,16.75
2019-02-24T07:02:38.080Z,18.12
2019-02-24T07:05:13.283Z,18.75
2019-02-24T07:07:55.084Z,20.90
2019-02-24T07:10:30.207Z,17.90
2019-02-24T07:13:12.240Z,17.07
2019-02-24T07:15:47.413Z,19.32
2019-02-24T07:18:23.605Z,19.60
2019-02-24T07:20:59.140Z,16.32
2019-02-24T07:23:41.400Z,20.90
2019-02-24T07:26:17.047Z,16.12
2019-02-24T07:28:59.871Z,21.05
2019-02-24T07:31:41.704Z,18.33
2019-02-24T07:34:16.933Z,31.70
2019-02-24T07:36:53.138Z,33.67
2019-02-24T07:39:35.942Z,24.50
2019-02-24T07:42:11.143Z,41.33
2019-02-24T07:44:53.693Z,35.88
2019-02-24T07:47:29.625Z,58.20
2019-02-24T07:50:05.545Z,26.27
2019-02-24T07:52:40.748Z,27.00
2019-02-24T07:55:09.928Z,24.25
2019-02-24T07:57:52.692Z,22.62
2019-02-24T08:00:32.280Z,21.33
2019-02-24T08:03:05.069Z,24.15
2019-02-24T08:05:41.154Z,14.83
2019-02-24T08:08:17.163Z,23.18
2019-02-24T08:10:52.635Z,20.43
2019-02-24T08:13:28.533Z,19.90
2019-02-24T08:16:04.314Z,25.08
2019-02-24T08:18:49.040Z,20.02
2019-02-24T08:21:17.851Z,19.77
2019-02-24T08:23:54.055Z,19.27
2019-02-24T08:26:29.936Z,16.52
2019-02-24T08:29:05.983Z,18.12
2019-02-24T08:31:47.503Z,19.52
2019-02-24T08:34:23.472Z,14.40
2019-02-24T08:37:04.902Z,17.70
2019-02-24T08:39:46.865Z,14.68
2019-02-24T08:42:22.322Z,19.82
2019-02-24T08:45:04.867Z,17.17
2019-02-24T08:47:46.824Z,17.65
2019-02-24T08:50:23.040Z,18.70
2019-02-24T08:52:58.409Z,13.80
2019-02-24T08:55:40.284Z,19.20
2019-02-24T08:58:29.011Z,19.37
2019-02-24T09:01:10.566Z,18.40
2019-02-24T09:03:46.626Z,21.80
2019-02-24T09:06:28.625Z,16.12
2019-02-24T09:09:04.328Z,22.90
2019-02-24T09:11:40.221Z,19.27
2019-02-24T09:14:15.693Z,17.40
2019-02-24T09:16:57.854Z,18.55
2019-02-24T09:19:40.073Z,20.92
2019-02-24T09:22:15.309Z,21.57
2019-02-24T09:24:57.781Z,19.57
2019-02-24T09:27:33.101Z,23.15
2019-02-24T09:30:13.583Z,21.87
2019-02-24T09:32:49.794Z,21.62
2019-02-24T09:35:25.243Z,19.37
2019-02-24T09:38:06.803Z,21.75
2019-02-24T09:40:42.797Z,18.12
2019-02-24T09:43:18.976Z,20.23
2019-02-24T09:45:54.865Z,23.73
2019-02-24T09:48:37.196Z,20.65
2019-02-24T09:51:13.212Z,18.92
2019-02-24T09:53:48.551Z,21.23
2019-02-24T09:56:36.923Z,17.27
2019-02-24T09:59:33.577Z,19.52
2019-02-24T10:02:09.791Z,19.73
2019-02-24T10:04:53.038Z,19.45
2019-02-24T10:07:28.545Z,20.75
2019-02-24T10:10:04.616Z,17.77
2019-02-24T10:12:40.264Z,17.20
2019-02-24T10:15:21.195Z,19.12
2019-02-24T10:17:56.844Z,18.10
2019-02-24T10:20:39.663Z,16.00
2019-02-24T10:23:15.728Z,16.10
2019-02-24T10:25:58.254Z,15.72
2019-02-24T10:28:40.613Z,15.95
2019-02-24T10:31:23.223Z,15.55
2019-02-24T10:33:59.053Z,15.93
2019-02-24T10:36:41.468Z,11.15
2019-02-24T10:39:19.559Z,14.78
2019-02-24T10:42:02.750Z,13.78
2019-02-24T10:44:39.156Z,10.50
2019-02-24T10:47:21.760Z,11.60
2019-02-24T10:49:57.093Z,13.95
2019-02-24T10:52:39.214Z,10.35
2019-02-24T10:55:14.443Z,13.65
2019-02-24T10:57:55.788Z,12.93
2019-02-24T11:00:37.976Z,13.45
2019-02-24T11:03:19.675Z,15.10
2019-02-24T11:05:54.931Z,16.20
2019-02-24T11:08:30.197Z,13.85
2019-02-24T11:11:13.284Z,12.30
2019-02-24T11:13:49.116Z,10.85
2019-02-24T11:16:24.539Z,13.48
2019-02-24T11:19:06.948Z,10.78
2019-02-24T11:21:49.019Z,15.75
2019-02-24T11:24:24.833Z,14.28
2019-02-24T11:27:06.997Z,14.18
2019-02-24T11:29:49.372Z,14.55
2019-02-24T11:32:24.795Z,14.53
2019-02-24T11:35:06.906Z,13.85
2019-02-24T11:37:42.918Z,16.27
2019-02-24T11:40:31.411Z,13.78
2019-02-24T11:43:15.462Z,12.10
2019-02-24T11:45:50.804Z,13.25
2019-02-24T11:48:26.792Z,11.75
2019-02-24T11:51:09.303Z,11.57
2019-02-24T11:53:51.277Z,8.23
2019-02-24T11:56:26.544Z,12.68
2019-02-24T11:59:09.111Z,11.50
2019-02-24T12:01:50.905Z,10.58
2019-02-24T12:04:26.301Z,10.80
2019-02-24T12:07:01.599Z,10.93
2019-02-24T12:09:44.221Z,9.20
2019-02-24T12:12:22.158Z,12.85
2019-02-24T12:14:57.403Z,11.22
2019-02-24T12:17:39.579Z,12.95
2019-02-24T12:20:18.178Z,11.85
2019-02-24T12:23:09.546Z,10.58
2019-02-24T12:25:52.242Z,10.05
2019-02-24T12:28:29.008Z,11.22
2019-02-24T12:31:11.145Z,9.70
2019-02-24T12:33:46.797Z,11.90
2019-02-24T12:36:28.806Z,9.78
2019-02-24T12:39:07.397Z,11.40
2019-02-24T12:41:42.806Z,12.00
2019-02-24T12:44:18.982Z,10.53
2019-02-24T12:47:00.914Z,9.28
2019-02-24T12:49:36.833Z,9.13
2019-02-24T12:52:20.687Z,8.70
2019-02-24T12:55:03.062Z,8.65
2019-02-24T12:57:39.252Z,8.40
2019-02-24T13:00:15.063Z,12.18
2019-02-24T13:02:51.506Z,9.75
2019-02-24T13:05:27.504Z,11.48
2019-02-24T13:08:09.423Z,9.53
2019-02-24T13:10:45.201Z,13.32
2019-02-24T13:13:21.263Z,13.58
2019-02-24T13:16:03.246Z,11.83
2019-02-24T13:18:46.150Z,11.75
2019-02-24T13:21:24.602Z,12.57
2019-02-24T13:24:00.138Z,15.03
2019-02-24T13:26:42.283Z,16.75
2019-02-24T13:29:18.152Z,17.00
2019-02-24T13:32:00.642Z,16.57
2019-02-24T13:34:35.991Z,13.75
2019-02-24T13:37:05.208Z,12.47
2019-02-24T13:39:41.459Z,12.37
2019-02-24T13:42:17.049Z,13.00
2019-02-24T13:44:52.522Z,11.15
2019-02-24T13:47:35.110Z,11.25
2019-02-24T13:50:17.320Z,11.40
2019-02-24T13:52:53.081Z,11.60
2019-02-24T13:55:29.527Z,10.60
2019-02-24T13:58:12.411Z,10.78
2019-02-24T14:00:54.805Z,7.50
2019-02-24T14:03:37.085Z,11.28
2019-02-24T14:06:13.265Z,12.80
2019-02-24T14:08:49.420Z,8.55
2019-02-24T14:11:25.407Z,9.95
2019-02-24T14:14:07.194Z,8.33
2019-02-24T14:16:42.970Z,7.33
2019-02-24T14:19:25.333Z,8.38
2019-02-24T14:21:54.517Z,10.18
2019-02-24T14:24:44.136Z,13.55
2019-02-24T14:27:33.262Z,9.28
2019-02-24T14:30:18.755Z,11.83
2019-02-24T14:33:01.311Z,9.88
2019-02-24T14:35:36.759Z,10.60
2019-02-24T14:38:19.549Z,11.78
2019-02-24T14:40:54.964Z,12.88
2019-02-24T14:43:37.247Z,12.60
2019-02-24T14:46:13.278Z,13.28
2019-02-24T14:48:55.787Z,15.80
2019-02-24T14:51:31.496Z,15.05
2019-02-24T14:54:13.780Z,14.07
2019-02-24T14:56:55.891Z,22.75
2019-02-24T14:59:32.082Z,13.00
2019-02-24T15:02:07.781Z,13.18
2019-02-24T15:04:43.582Z,13.38
2019-02-24T15:07:19.425Z,14.73
2019-02-24T15:10:01.905Z,16.48
2019-02-24T15:12:31.368Z,14.18
2019-02-24T15:15:13.009Z,14.47
2019-02-24T15:18:02.366Z,14.53
2019-02-24T15:20:38.882Z,18.17
2019-02-24T15:23:21.099Z,20.05
2019-02-24T15:25:56.733Z,19.30
2019-02-24T15:28:38.609Z,19.75
2019-02-24T15:31:16.458Z,17.75
2019-02-24T15:33:58.722Z,21.33
2019-02-24T15:36:35.776Z,23.52
2019-02-24T15:39:17.774Z,20.75
2019-02-24T15:41:53.694Z,20.02
2019-02-24T15:44:35.529Z,17.85
2019-02-24T15:47:11.206Z,15.00
2019-02-24T15:49:54.024Z,13.28
2019-02-24T15:52:29.512Z,15.72
2019-02-24T15:55:11.665Z,22.98
2019-02-24T15:57:54.840Z,22.48
2019-02-24T16:00:38.441Z,24.12
2019-02-24T16:03:13.860Z,20.97
2019-02-24T16:05:56.137Z,18.55
2019-02-24T16:08:37.997Z,14.30
2019-02-24T16:11:20.733Z,16.20
2019-02-24T16:13:56.656Z,18.50
2019-02-24T16:16:38.843Z,20.15
2019-02-24T16:19:14.163Z,17.48
2019-02-24T16:21:50.082Z,17.20
2019-02-24T16:24:25.843Z,21.30
2019-02-24T16:27:02.068Z,32.00
2019-02-24T16:29:37.941Z,23.70
2019-02-24T16:32:19.871Z,24.47
2019-02-24T16:34:56.579Z,21.33
2019-02-24T16:37:32.376Z,24.47
2019-02-24T16:40:09.074Z,23.05
2019-02-24T16:42:44.606Z,20.70
2019-02-24T16:45:26.746Z,17.23
2019-02-24T16:48:02.079Z,22.82
2019-02-24T16:50:37.851Z,32.42
2019-02-24T16:53:14.040Z,24.30
2019-02-24T16:55:49.524Z,20.17
2019-02-24T16:58:25.665Z,19.87
2019-02-24T17:01:02.307Z,16.23
2019-02-24T17:03:43.721Z,16.80
2019-02-24T17:06:19.156Z,15.20
2019-02-24T17:09:03.312Z,16.40
2019-02-24T17:11:38.927Z,16.70
2019-02-24T17:14:24.761Z,15.72
2019-02-24T17:17:01.845Z,17.27
2019-02-24T17:19:38.110Z,16.48
2019-02-24T17:22:20.619Z,14.73
2019-02-24T17:24:56.429Z,13.45
2019-02-24T17:27:38.936Z,17.95
2019-02-24T17:30:12.393Z,15.25
2019-02-24T17:32:53.880Z,15.98
2019-02-24T17:35:30.093Z,16.02
2019-02-24T17:38:13.384Z,20.48
2019-02-24T17:40:56.037Z,20.92
2019-02-24T17:43:25.241Z,21.87
2019-02-24T17:46:07.424Z,20.60
2019-02-24T17:48:49.926Z,18.15
2019-02-24T17:51:25.738Z,20.25
2019-02-24T17:54:01.388Z,18.37
2019-02-24T17:56:44.338Z,16.95
2019-02-24T17:59:19.576Z,17.23
2019-02-24T18:02:02.125Z,14.80
2019-02-24T18:04:31.325Z,15.25
2019-02-24T18:07:07.443Z,23.90
2019-02-24T18:09:43.130Z,23.38
2019-02-24T18:12:25.883Z,22.52
2019-02-24T18:15:08.994Z,32.63
2019-02-24T18:17:50.880Z,31.60
2019-02-24T18:20:26.154Z,35.60
2019-02-24T18:23:08.328Z,23.35
2019-02-24T18:25:44.123Z,22.40
2019-02-24T18:28:26.578Z,16.25
2019-02-24T18:31:02.691Z,34.25
2019-02-24T18:33:38.655Z,19.73
2019-02-24T18:36:14.996Z,18.77
2019-02-24T18:38:57.301Z,23.35
2019-02-24T18:41:32.642Z,22.32
2019-02-24T18:44:08.317Z,20.92
2019-02-24T18:46:44.149Z,19.95
2019-02-24T18:49:21.276Z,19.35
2019-02-24T18:51:58.966Z,19.82
2019-02-24T18:54:34.971Z,20.55
2019-02-24T18:57:10.637Z,23.25
2019-02-24T18:59:53.665Z,17.55
2019-02-24T19:02:29.134Z,19.65
2019-02-24T19:05:11.854Z,27.55
2019-02-24T19:07:47.649Z,28.25
2019-02-24T19:10:30.909Z,33.67
2019-02-24T19:13:00.206Z,46.08
2019-02-24T19:15:36.419Z,48.73
2019-02-24T19:18:12.653Z,42.40
2019-02-24T19:20:54.746Z,26.15
2019-02-24T19:23:37.548Z,22.22
2019-02-24T19:26:21.387Z,18.98
2019-02-24T19:28:58.371Z,20.30
2019-02-24T19:31:33.900Z,16.07
2019-02-24T19:34:09.641Z,21.33
2019-02-24T19:36:52.035Z,20.35
2019-02-24T19:39:34.398Z,23.52
2019-02-24T19:42:09.896Z,22.35
2019-02-24T19:44:45.348Z,17.70
2019-02-24T19:47:27.753Z,29.30
2019-02-24T19:50:03.003Z,21.80
2019-02-24T19:52:45.499Z,17.35
2019-02-24T19:55:22.046Z,16.17
2019-02-24T19:58:04.634Z,17.30
2019-02-24T20:00:40.256Z,12.30
2019-02-24T20:03:22.578Z,11.10
2019-02-24T20:06:05.088Z,10.10
2019-02-24T20:08:41.025Z,21.35
2019-02-24T20:11:23.213Z,14.68
2019-02-24T20:13:52.427Z,18.60
2019-02-24T20:16:34.732Z,17.77
2019-02-24T20:19:10.442Z,11.57
2019-02-24T20:21:45.863Z,14.07
2019-02-24T20:24:32.977Z,18.32
2019-02-24T20:27:04.984Z,17.60
2019-02-24T20:29:47.728Z,17.77
2019-02-24T20:32:16.908Z,14.60
2019-02-24T20:34:59.781Z,14.75
2019-02-24T20:37:35.757Z,18.10
2019-02-24T20:40:21.458Z,16.05
2019-02-24T20:42:57.550Z,23.15
2019-02-24T20:45:34.074Z,17.30
2019-02-24T20:48:03.274Z,21.00
2019-02-24T20:50:51.118Z,25.50
2019-02-24T20:53:20.328Z,25.68
2019-02-24T20:56:02.528Z,20.02
2019-02-24T20:58:44.131Z,20.00
2019-02-24T21:01:20.399Z,20.97
2019-02-24T21:03:49.567Z,22.90
2019-02-24T21:06:25.463Z,19.98
2019-02-24T21:09:06.879Z,25.02
2019-02-24T21:11:43.189Z,22.55
2019-02-24T21:14:19.367Z,23.87
2019-02-24T21:16:55.536Z,26.82
2019-02-24T21:19:31.811Z,28.17
2019-02-24T21:22:07.960Z,22.00
2019-02-24T21:24:44.048Z,25.65
2019-02-24T21:27:25.661Z,25.15
2019-02-24T21:30:00.950Z,22.60
2019-02-24T21:32:43.394Z,27.32
2019-02-24T21:35:18.620Z,23.73
2019-02-24T21:38:01.046Z,22.48
2019-02-24T21:40:37.154Z,27.48
2019-02-24T21:43:19.534Z,19.57
2019-02-24T21:45:55.550Z,28.17
2019-02-24T21:48:31.402Z,24.55
2019-02-24T21:51:06.663Z,23.77
2019-02-24T21:53:41.939Z,19.17
2019-02-24T21:56:17.255Z,34.05
2019-02-24T21:58:53.372Z,29.27
2019-02-24T22:01:35.684Z,27.80
2019-02-24T22:04:11.438Z,29.20
2019-02-24T22:06:54.029Z,21.48
2019-02-24T22:09:36.332Z,32.60
2019-02-24T22:12:12.434Z,29.15
2019-02-24T22:14:54.000Z,27.15
2019-02-24T22:17:29.509Z,21.87
2019-02-24T22:20:20.674Z,34.38
2019-02-24T22:23:03.614Z,30.05
2019-02-24T22:25:39.607Z,31.87
2019-02-24T22:28:14.869Z,27.45
2019-02-24T22:30:50.599Z,27.67
2019-02-24T22:33:19.793Z,27.95
2019-02-24T22:35:55.455Z,32.05
2019-02-24T22:38:31.669Z,32.70
2019-02-24T22:41:00.862Z,30.45
2019-02-24T22:43:37.101Z,29.72
2019-02-24T22:46:12.704Z,35.48
2019-02-24T22:48:48.256Z,30.00
2019-02-24T22:51:24.146Z,33.25
2019-02-24T22:54:07.198Z,34.45
2019-02-24T22:56:49.552Z,37.35
2019-02-24T22:59:30.798Z,28.90
2019-02-24T23:02:13.163Z,37.75
2019-02-24T23:04:42.338Z,36.25
2019-02-24T23:07:11.520Z,36.13
2019-02-24T23:09:47.690Z,38.98
2019-02-24T23:12:23.365Z,34.63
2019-02-24T23:14:58.693Z,33.73
2019-02-24T23:17:41.468Z,37.75
2019-02-24T23:20:10.712Z,43.08
2019-02-24T23:22:39.891Z,38.15
2019-02-24T23:25:15.413Z,37.70
2019-02-24T23:27:57.065Z,40.17
2019-02-24T23:30:32.884Z,38.05
2019-02-24T23:33:15.293Z,40.33
2019-02-24T23:35:50.752Z,39.92
2019-02-24T23:38:19.935Z,35.95
2019-02-24T23:41:02.441Z,40.35
2019-02-24T23:43:38.358Z,43.25
2019-02-24T23:46:20.642Z,43.00
2019-02-24T23:48:56.363Z,45.30
2019-02-24T23:51:38.731Z,48.05
2019-02-24T23:54:07.902Z,40.85
2019-02-24T23:56:43.687Z,47.93
2019-02-24T23:59:19.247Z,46.18
